Terminal Aerodrome Forecast
Issued by NWS

Home | Current Version | Previous Version | Text Only | Print | Product List | Glossary On
Versions: 1 2 3 4 5 6 7 8 9 10 11 12 13 14
000
FTUS44 KOUN 171122
TAFHBR
TAF
KHBR 171122Z 1712/1812 01007KT P6SM SCT100 SCT250
     FM171500 05007KT P6SM SCT250
     FM172300 12010KT P6SM SCT150=

USA.gov is the U.S. government's official web portal to all federal, state and local government web resources and services.